JST532 YMML-YSSY
Flight info
| Callsign | JST532 |
|---|---|
| Flight time | 1h 8m |
| Altitude | 37000 |
| Route | DOSEL2/34 DOSEL Y59 RIVET |
| Aircraft | A20N/M-SDE2E3FGHIRWXY/LB1 |
Departure
| Time | 2026-05-04 09:32 |
|---|---|
| Airport | Melbourne Airport (YMML) |
Arrival
| Time | 2026-05-04 10:40 |
|---|---|
| Airport | Sydney Kingsford Smith International Airport (YSSY) |
| Time | Latitude | Longitude | Altitude | Speed | Heading |
|---|---|---|---|---|---|
| 2026-05-04 08:37 | -37.67341 | 144.84722 | 384 ft | 0 kts | 351° |
| 2026-05-04 09:14 | -37.67381 | 144.84730 | 383 ft | 2 kts | 351° |
| 2026-05-04 09:14 | -37.67396 | 144.84733 | 383 ft | 2 kts | 351° |
| 2026-05-04 09:14 | -37.67411 | 144.84735 | 382 ft | 2 kts | 343° |
| 2026-05-04 09:14 | -37.67425 | 144.84743 | 382 ft | 2 kts | 320° |
| 2026-05-04 09:15 | -37.67432 | 144.84755 | 381 ft | 1 kts | 261° |
| 2026-05-04 09:15 | -37.67432 | 144.84756 | 382 ft | 0 kts | 259° |
| 2026-05-04 09:18 | -37.67432 | 144.84755 | 382 ft | 1 kts | 259° |
| 2026-05-04 09:18 | -37.67433 | 144.84709 | 381 ft | 8 kts | 272° |
| 2026-05-04 09:18 | -37.67443 | 144.84659 | 381 ft | 14 kts | 255° |
| 2026-05-04 09:19 | -37.67458 | 144.84552 | 379 ft | 9 kts | 260° |
| 2026-05-04 09:19 | -37.67468 | 144.84463 | 378 ft | 12 kts | 261° |
| 2026-05-04 09:19 | -37.67480 | 144.84358 | 376 ft | 12 kts | 261° |
| 2026-05-04 09:19 | -37.67488 | 144.84293 | 374 ft | 0 kts | 261° |
| 2026-05-04 09:21 | -37.67489 | 144.84284 | 374 ft | 4 kts | 261° |
| 2026-05-04 09:21 | -37.67496 | 144.84227 | 373 ft | 9 kts | 261° |
| 2026-05-04 09:21 | -37.67522 | 144.84136 | 370 ft | 13 kts | 221° |
| 2026-05-04 09:22 | -37.67621 | 144.84140 | 367 ft | 17 kts | 169° |
| 2026-05-04 09:22 | -37.67710 | 144.84156 | 366 ft | 0 kts | 171° |
| 2026-05-04 09:25 | -37.67798 | 144.84173 | 361 ft | 0 kts | 173° |
| 2026-05-04 09:25 | -37.67802 | 144.84173 | 361 ft | 3 kts | 173° |
| 2026-05-04 09:26 | -37.67850 | 144.84164 | 366 ft | 7 kts | 206° |
| 2026-05-04 09:26 | -37.67873 | 144.84124 | 361 ft | 0 kts | 253° |
| 2026-05-04 09:30 | -37.67877 | 144.84104 | 357 ft | 5 kts | 255° |
| 2026-05-04 09:30 | -37.67888 | 144.84034 | 359 ft | 11 kts | 263° |
| 2026-05-04 09:30 | -37.67861 | 144.83966 | 355 ft | 3 kts | 344° |
| 2026-05-04 09:30 | -37.67858 | 144.83965 | 356 ft | 0 kts | 348° |
| 2026-05-04 09:31 | -37.67827 | 144.83958 | 365 ft | 24 kts | 352° |
| 2026-05-04 09:31 | -37.67425 | 144.83883 | 369 ft | 94 kts | 352° |
| 2026-05-04 09:31 | -37.66578 | 144.83721 | 428 ft | 147 kts | 351° |
| 2026-05-04 09:31 | -37.65500 | 144.83504 | 950 ft | 166 kts | 349° |
| 2026-05-04 09:32 | -37.64330 | 144.83269 | 1777 ft | 173 kts | 346° |
| 2026-05-04 09:32 | -37.63136 | 144.83080 | 2746 ft | 175 kts | 348° |
| 2026-05-04 09:34 | -37.52524 | 144.86453 | 4998 ft | 264 kts | 14° |
| 2026-05-04 09:34 | -37.50793 | 144.87363 | 5005 ft | 267 kts | 17° |
| 2026-05-04 09:34 | -37.49123 | 144.88334 | 5005 ft | 269 kts | 19° |
| 2026-05-04 09:34 | -37.47435 | 144.89355 | 5004 ft | 270 kts | 19° |
| 2026-05-04 09:35 | -37.45712 | 144.90409 | 5010 ft | 271 kts | 19° |
| 2026-05-04 09:35 | -37.44103 | 144.91563 | 5010 ft | 274 kts | 31° |
| 2026-05-04 09:35 | -37.42724 | 144.93277 | 5013 ft | 283 kts | 48° |
| 2026-05-04 09:35 | -37.41592 | 144.95307 | 5012 ft | 284 kts | 50° |
| 2026-05-04 09:37 | -37.33537 | 145.10362 | 9264 ft | 303 kts | 54° |
| 2026-05-04 09:37 | -37.32524 | 145.12542 | 10802 ft | 283 kts | 56° |
| 2026-05-04 09:38 | -37.31478 | 145.14575 | 11926 ft | 272 kts | 45° |
| 2026-05-04 09:38 | -37.30204 | 145.16399 | 12517 ft | 288 kts | 43° |
| 2026-05-04 09:38 | -37.28814 | 145.18353 | 12852 ft | 313 kts | 45° |
| 2026-05-04 09:38 | -37.27383 | 145.20550 | 13173 ft | 338 kts | 48° |
| 2026-05-04 09:39 | -37.25913 | 145.22990 | 13460 ft | 362 kts | 50° |
| 2026-05-04 09:39 | -37.24413 | 145.25597 | 14119 ft | 372 kts | 51° |
| 2026-05-04 09:39 | -37.22909 | 145.28257 | 14964 ft | 374 kts | 51° |
| 2026-05-04 09:39 | -37.21398 | 145.30930 | 15796 ft | 378 kts | 51° |
| 2026-05-04 09:40 | -37.19864 | 145.33636 | 16611 ft | 383 kts | 51° |
| 2026-05-04 09:40 | -37.18309 | 145.36370 | 17429 ft | 387 kts | 50° |
| 2026-05-04 09:40 | -37.16734 | 145.39131 | 18207 ft | 392 kts | 50° |
| 2026-05-04 09:40 | -37.15140 | 145.41919 | 18913 ft | 394 kts | 50° |
| 2026-05-04 09:41 | -37.13535 | 145.44719 | 19449 ft | 398 kts | 50° |
| 2026-05-04 09:42 | -37.01942 | 145.64891 | 23297 ft | 418 kts | 50° |
| 2026-05-04 09:43 | -37.00228 | 145.67863 | 23743 ft | 422 kts | 50° |
| 2026-05-04 09:43 | -36.98504 | 145.70851 | 24171 ft | 425 kts | 49° |
| 2026-05-04 09:43 | -36.96769 | 145.73859 | 24596 ft | 428 kts | 49° |
| 2026-05-04 09:43 | -36.95021 | 145.76885 | 25004 ft | 431 kts | 48° |
| 2026-05-04 09:44 | -36.93260 | 145.79930 | 25427 ft | 433 kts | 47° |
| 2026-05-04 09:44 | -36.91494 | 145.82978 | 25893 ft | 434 kts | 47° |
| 2026-05-04 09:44 | -36.90321 | 145.85005 | 26123 ft | 437 kts | 47° |
| 2026-05-04 09:46 | -36.76947 | 146.08002 | 28850 ft | 453 kts | 44° |
| 2026-05-04 09:46 | -36.75692 | 146.10159 | 29023 ft | 455 kts | 44° |
| 2026-05-04 09:46 | -36.73815 | 146.13365 | 29237 ft | 460 kts | 44° |
| 2026-05-04 09:47 | -36.71925 | 146.16593 | 29568 ft | 462 kts | 44° |
| 2026-05-04 09:47 | -36.70026 | 146.19837 | 29875 ft | 464 kts | 44° |
| 2026-05-04 09:49 | -36.56477 | 146.42873 | 31752 ft | 477 kts | 45° |
| 2026-05-04 09:49 | -36.54515 | 146.46197 | 32064 ft | 477 kts | 45° |
| 2026-05-04 09:49 | -36.52550 | 146.49522 | 32365 ft | 477 kts | 45° |
| 2026-05-04 09:51 | -36.40668 | 146.69550 | 33951 ft | 482 kts | 45° |
| 2026-05-04 09:51 | -36.38675 | 146.72898 | 34192 ft | 482 kts | 45° |
| 2026-05-04 09:51 | -36.36683 | 146.76242 | 34413 ft | 482 kts | 45° |
| 2026-05-04 09:51 | -36.34685 | 146.79593 | 34596 ft | 483 kts | 45° |
| 2026-05-04 09:52 | -36.32687 | 146.82942 | 34798 ft | 484 kts | 45° |
| 2026-05-04 09:52 | -36.30684 | 146.86295 | 35022 ft | 483 kts | 45° |
| 2026-05-04 09:52 | -36.28688 | 146.89634 | 35247 ft | 483 kts | 45° |
| 2026-05-04 09:52 | -36.26686 | 146.92978 | 35412 ft | 483 kts | 45° |
| 2026-05-04 09:53 | -36.24680 | 146.96324 | 35601 ft | 484 kts | 45° |
| 2026-05-04 09:53 | -36.22674 | 146.99668 | 35782 ft | 484 kts | 45° |
| 2026-05-04 09:53 | -36.20664 | 147.03019 | 35962 ft | 484 kts | 45° |
| 2026-05-04 09:53 | -36.18658 | 147.06360 | 36152 ft | 484 kts | 45° |
| 2026-05-04 09:54 | -36.16644 | 147.09708 | 36314 ft | 485 kts | 45° |
| 2026-05-04 09:54 | -36.14634 | 147.13046 | 36479 ft | 483 kts | 45° |
| 2026-05-04 09:54 | -36.12628 | 147.16373 | 36729 ft | 482 kts | 45° |
| 2026-05-04 09:54 | -36.10623 | 147.19697 | 36879 ft | 482 kts | 45° |
| 2026-05-04 09:55 | -36.08616 | 147.23020 | 37029 ft | 483 kts | 45° |
| 2026-05-04 09:55 | -36.04592 | 147.29674 | 37068 ft | 483 kts | 45° |
| 2026-05-04 09:56 | -36.00569 | 147.36316 | 37062 ft | 482 kts | 45° |
| 2026-05-04 09:56 | -35.96552 | 147.42940 | 37067 ft | 481 kts | 45° |
| 2026-05-04 09:57 | -35.92532 | 147.49547 | 37075 ft | 482 kts | 45° |
| 2026-05-04 09:57 | -35.88509 | 147.56146 | 37073 ft | 482 kts | 45° |
| 2026-05-04 09:58 | -35.84481 | 147.62746 | 37081 ft | 481 kts | 45° |
| 2026-05-04 09:58 | -35.80452 | 147.69331 | 37080 ft | 481 kts | 45° |
| 2026-05-04 10:00 | -35.64251 | 147.95694 | 37096 ft | 483 kts | 44° |
| 2026-05-04 10:04 | -35.35730 | 148.41614 | 37083 ft | 482 kts | 44° |
| 2026-05-04 10:04 | -35.31666 | 148.48110 | 37087 ft | 486 kts | 44° |
| 2026-05-04 10:05 | -35.27579 | 148.54639 | 37097 ft | 481 kts | 44° |
| 2026-05-04 10:05 | -35.23498 | 148.61131 | 37092 ft | 482 kts | 44° |
| 2026-05-04 10:06 | -35.19413 | 148.67621 | 37098 ft | 483 kts | 44° |
| 2026-05-04 10:06 | -35.15312 | 148.74126 | 37094 ft | 483 kts | 44° |
| 2026-05-04 10:08 | -35.03086 | 148.93449 | 35710 ft | 479 kts | 43° |
| 2026-05-04 10:08 | -35.01048 | 148.96658 | 35470 ft | 479 kts | 43° |
| 2026-05-04 10:08 | -34.99010 | 148.99867 | 35232 ft | 478 kts | 43° |
| 2026-05-04 10:08 | -34.96974 | 149.03069 | 35003 ft | 478 kts | 43° |
| 2026-05-04 10:09 | -34.94939 | 149.06266 | 34746 ft | 476 kts | 43° |
| 2026-05-04 10:09 | -34.92913 | 149.09450 | 34514 ft | 475 kts | 43° |
| 2026-05-04 10:09 | -34.90886 | 149.12628 | 34265 ft | 475 kts | 43° |
| 2026-05-04 10:09 | -34.88849 | 149.15810 | 34028 ft | 477 kts | 42° |
| 2026-05-04 10:10 | -34.86807 | 149.18998 | 33760 ft | 477 kts | 43° |
| 2026-05-04 10:10 | -34.84774 | 149.22183 | 33501 ft | 476 kts | 43° |
| 2026-05-04 10:10 | -34.82747 | 149.25357 | 33237 ft | 475 kts | 43° |
| 2026-05-04 10:10 | -34.80715 | 149.28533 | 32976 ft | 475 kts | 43° |
| 2026-05-04 10:11 | -34.78686 | 149.31699 | 32720 ft | 475 kts | 43° |
| 2026-05-04 10:11 | -34.76656 | 149.34864 | 32466 ft | 474 kts | 43° |
| 2026-05-04 10:11 | -34.74645 | 149.38047 | 32179 ft | 478 kts | 46° |
| 2026-05-04 10:11 | -34.72892 | 149.41473 | 31940 ft | 488 kts | 53° |
| 2026-05-04 10:12 | -34.71291 | 149.45172 | 31689 ft | 488 kts | 54° |
| 2026-05-04 10:12 | -34.69713 | 149.48820 | 31440 ft | 488 kts | 53° |
| 2026-05-04 10:12 | -34.68153 | 149.52413 | 31170 ft | 487 kts | 53° |
| 2026-05-04 10:12 | -34.66567 | 149.56053 | 30602 ft | 488 kts | 53° |
| 2026-05-04 10:13 | -34.64957 | 149.59737 | 29975 ft | 486 kts | 53° |
| 2026-05-04 10:13 | -34.63403 | 149.63292 | 29365 ft | 480 kts | 54° |
| 2026-05-04 10:13 | -34.61850 | 149.66845 | 28769 ft | 474 kts | 54° |
| 2026-05-04 10:13 | -34.60312 | 149.70355 | 28193 ft | 468 kts | 54° |
| 2026-05-04 10:14 | -34.58792 | 149.73819 | 27608 ft | 463 kts | 53° |
| 2026-05-04 10:14 | -34.57283 | 149.77251 | 27030 ft | 458 kts | 53° |
| 2026-05-04 10:16 | -34.47045 | 150.00442 | 22966 ft | 434 kts | 53° |
| 2026-05-04 10:16 | -34.45628 | 150.03641 | 22405 ft | 428 kts | 54° |
| 2026-05-04 10:16 | -34.44224 | 150.06803 | 21839 ft | 424 kts | 54° |
| 2026-05-04 10:16 | -34.42831 | 150.09930 | 21269 ft | 419 kts | 54° |
| 2026-05-04 10:17 | -34.41460 | 150.13017 | 20734 ft | 415 kts | 54° |
| 2026-05-04 10:17 | -34.40099 | 150.16080 | 20183 ft | 411 kts | 54° |
| 2026-05-04 10:19 | -34.31221 | 150.36018 | 17916 ft | 338 kts | 54° |
| 2026-05-04 10:19 | -34.30110 | 150.38503 | 17327 ft | 334 kts | 54° |
| 2026-05-04 10:19 | -34.29011 | 150.40944 | 16767 ft | 328 kts | 54° |
| 2026-05-04 10:19 | -34.27922 | 150.43358 | 16187 ft | 325 kts | 54° |
| 2026-05-04 10:20 | -34.26849 | 150.45752 | 15628 ft | 322 kts | 54° |
| 2026-05-04 10:20 | -34.25791 | 150.48117 | 15075 ft | 319 kts | 54° |
| 2026-05-04 10:20 | -34.24729 | 150.50485 | 14280 ft | 324 kts | 54° |
| 2026-05-04 10:20 | -34.23639 | 150.52906 | 13340 ft | 332 kts | 55° |
| 2026-05-04 10:21 | -34.22539 | 150.55360 | 12700 ft | 328 kts | 55° |
| 2026-05-04 10:21 | -34.21491 | 150.57721 | 12510 ft | 310 kts | 55° |
| 2026-05-04 10:21 | -34.20488 | 150.59977 | 12048 ft | 302 kts | 55° |
| 2026-05-04 10:21 | -34.19502 | 150.62177 | 11652 ft | 295 kts | 55° |
| 2026-05-04 10:22 | -34.17488 | 150.66636 | 11000 ft | 299 kts | 55° |
| 2026-05-04 10:22 | -34.16502 | 150.68832 | 10630 ft | 296 kts | 56° |
| 2026-05-04 10:22 | -34.15478 | 150.70957 | 10364 ft | 288 kts | 45° |
| 2026-05-04 10:23 | -34.13968 | 150.72455 | 10133 ft | 279 kts | 19° |
| 2026-05-04 10:23 | -34.12135 | 150.73006 | 10042 ft | 270 kts | 3° |
| 2026-05-04 10:25 | -34.03412 | 150.81787 | 10011 ft | 314 kts | 93° |
| 2026-05-04 10:25 | -34.03451 | 150.84380 | 9862 ft | 306 kts | 80° |
| 2026-05-04 10:25 | -34.03226 | 150.86924 | 9491 ft | 305 kts | 77° |
| 2026-05-04 10:25 | -34.02970 | 150.89456 | 9120 ft | 304 kts | 78° |
| 2026-05-04 10:26 | -34.02756 | 150.91983 | 8731 ft | 302 kts | 79° |
| 2026-05-04 10:26 | -34.02585 | 150.94502 | 8344 ft | 301 kts | 81° |
| 2026-05-04 10:26 | -34.02441 | 150.97013 | 7942 ft | 300 kts | 81° |
| 2026-05-04 10:26 | -34.02456 | 150.99526 | 7551 ft | 304 kts | 97° |
| 2026-05-04 10:27 | -34.03265 | 151.01883 | 7171 ft | 309 kts | 123° |
| 2026-05-04 10:27 | -34.04668 | 151.03835 | 7015 ft | 309 kts | 133° |
| 2026-05-04 10:27 | -34.06169 | 151.05641 | 6895 ft | 299 kts | 134° |
| 2026-05-04 10:27 | -34.07683 | 151.07216 | 6781 ft | 287 kts | 149° |
| 2026-05-04 10:28 | -34.09471 | 151.08135 | 6639 ft | 274 kts | 171° |
| 2026-05-04 10:28 | -34.11288 | 151.08565 | 6529 ft | 273 kts | 171° |
| 2026-05-04 10:28 | -34.13159 | 151.09031 | 6152 ft | 276 kts | 170° |
| 2026-05-04 10:28 | -34.15044 | 151.09521 | 5552 ft | 278 kts | 170° |
| 2026-05-04 10:29 | -34.16941 | 151.10017 | 4979 ft | 280 kts | 169° |
| 2026-05-04 10:29 | -34.18829 | 151.10512 | 4515 ft | 275 kts | 169° |
| 2026-05-04 10:29 | -34.20668 | 151.10990 | 4245 ft | 263 kts | 169° |
| 2026-05-04 10:29 | -34.22403 | 151.11421 | 4093 ft | 247 kts | 170° |
| 2026-05-04 10:30 | -34.24052 | 151.11825 | 3796 ft | 240 kts | 171° |
| 2026-05-04 10:30 | -34.25684 | 151.12220 | 3414 ft | 237 kts | 171° |
| 2026-05-04 10:30 | -34.27242 | 151.12786 | 3075 ft | 231 kts | 146° |
| 2026-05-04 10:30 | -34.28328 | 151.14178 | 3018 ft | 235 kts | 111° |
| 2026-05-04 10:31 | -34.28662 | 151.16032 | 3012 ft | 223 kts | 85° |
| 2026-05-04 10:31 | -34.28644 | 151.17891 | 3007 ft | 220 kts | 83° |
| 2026-05-04 10:32 | -34.22458 | 151.23967 | 2998 ft | 195 kts | 13° |
| 2026-05-04 10:33 | -34.21133 | 151.24275 | 3002 ft | 192 kts | 358° |
| 2026-05-04 10:33 | -34.19822 | 151.24156 | 2999 ft | 187 kts | 349° |
| 2026-05-04 10:33 | -34.18591 | 151.23861 | 3018 ft | 174 kts | 345° |
| 2026-05-04 10:33 | -34.17805 | 151.23648 | 3007 ft | 178 kts | 345° |
| 2026-05-04 10:34 | -34.16594 | 151.23330 | 3000 ft | 178 kts | 346° |
| 2026-05-04 10:34 | -34.15391 | 151.23016 | 3002 ft | 177 kts | 346° |
| 2026-05-04 10:34 | -34.14193 | 151.22703 | 3001 ft | 179 kts | 346° |
| 2026-05-04 10:34 | -34.12987 | 151.22387 | 2999 ft | 177 kts | 346° |
| 2026-05-04 10:35 | -34.11783 | 151.22072 | 2995 ft | 180 kts | 347° |
| 2026-05-04 10:35 | -34.10552 | 151.21740 | 2812 ft | 177 kts | 346° |
| 2026-05-04 10:35 | -34.09400 | 151.21449 | 2594 ft | 160 kts | 348° |
| 2026-05-04 10:35 | -34.08392 | 151.21186 | 2401 ft | 137 kts | 348° |
| 2026-05-04 10:36 | -34.07517 | 151.20958 | 2228 ft | 123 kts | 348° |
| 2026-05-04 10:36 | -34.06679 | 151.20740 | 2070 ft | 126 kts | 348° |
| 2026-05-04 10:36 | -34.05828 | 151.20518 | 1902 ft | 125 kts | 349° |
| 2026-05-04 10:36 | -34.04990 | 151.20299 | 1743 ft | 120 kts | 348° |
| 2026-05-04 10:37 | -34.04150 | 151.20074 | 1590 ft | 126 kts | 348° |
| 2026-05-04 10:37 | -34.03321 | 151.19834 | 1405 ft | 123 kts | 348° |
| 2026-05-04 10:37 | -34.02472 | 151.19635 | 1224 ft | 124 kts | 349° |
| 2026-05-04 10:37 | -34.01616 | 151.19432 | 993 ft | 126 kts | 348° |
| 2026-05-04 10:39 | -33.96514 | 151.18082 | 110 ft | 122 kts | 348° |
| 2026-05-04 10:39 | -33.95664 | 151.17865 | 33 ft | 121 kts | 348° |
| 2026-05-04 10:39 | -33.94950 | 151.17680 | 28 ft | 83 kts | 348° |
| 2026-05-04 10:40 | -33.94500 | 151.17564 | 29 ft | 57 kts | 348° |
| 2026-05-04 10:40 | -33.94143 | 151.17472 | 27 ft | 48 kts | 347° |
| 2026-05-04 10:40 | -33.93916 | 151.17441 | 26 ft | 15 kts | 61° |
| 2026-05-04 10:40 | -33.93898 | 151.17526 | 28 ft | 0 kts | 73° |
| 2026-05-04 10:41 | -33.93898 | 151.17528 | 28 ft | 0 kts | 73° |
| 2026-05-04 10:41 | -33.93897 | 151.17532 | 28 ft | 1 kts | 73° |
| 2026-05-04 10:41 | -33.93893 | 151.17549 | 28 ft | 3 kts | 72° |
| 2026-05-04 10:41 | -33.93883 | 151.17577 | 28 ft | 5 kts | 62° |
| 2026-05-04 10:42 | -33.93854 | 151.17595 | 29 ft | 5 kts | 6° |
| 2026-05-04 10:42 | -33.93816 | 151.17590 | 29 ft | 6 kts | 346° |
| 2026-05-04 10:42 | -33.93768 | 151.17575 | 29 ft | 8 kts | 345° |
| 2026-05-04 10:42 | -33.93710 | 151.17560 | 29 ft | 9 kts | 351° |
| 2026-05-04 10:43 | -33.93661 | 151.17583 | 29 ft | 7 kts | 52° |
| 2026-05-04 10:44 | -33.93636 | 151.17810 | 30 ft | 4 kts | 4° |
| 2026-05-04 10:45 | -33.93616 | 151.17783 | 30 ft | 5 kts | 303° |
| 2026-05-04 10:45 | -33.93599 | 151.17751 | 30 ft | 1 kts | 303° |
| 2026-05-04 10:45 | -33.93598 | 151.17748 | 30 ft | 0 kts | 302° |